Time;durP1;ratioP1;P1;durP2;ratioP2;P2;SDS_P1;SDS_P2;PMS_P1;PMS_P2;Temp;Humidity;BMP_temperature;BMP_pressure;BME280_temperature;BME280_humidity;BME280_pressure;Samples;Min_cycle;Max_cycle;Signal;HPM_P1;HPM_P2
2022/11/12 00:00:41;;;;;;;17.25;12.10;;;3.20;78.40;;;;;;5021226;28;20029;-68
2022/11/12 00:03:08;;;;;;;16.08;10.38;;;3.10;79.40;;;;;;5023445;28;20052;-69
2022/11/12 00:05:34;;;;;;;18.00;10.98;;;3.10;76.10;;;;;;5030953;28;20422;-68
2022/11/12 00:08:00;;;;;;;11.38;7.80;;;3.20;75.50;;;;;;5007380;28;20038;-68
2022/11/12 00:10:25;;;;;;;13.18;8.13;;;3.10;75.40;;;;;;5006018;28;20025;-68
2022/11/12 00:12:52;;;;;;;12.68;8.52;;;3.10;75.10;;;;;;5039529;28;20430;-69
2022/11/12 00:15:18;;;;;;;12.32;7.90;;;3.20;72.70;;;;;;5036688;28;20385;-68
2022/11/12 00:17:43;;;;;;;13.13;8.82;;;3.30;72.60;;;;;;5028701;28;20109;-68
2022/11/12 00:20:09;;;;;;;13.80;9.48;;;3.40;73.40;;;;;;5029694;28;20029;-68
2022/11/12 00:22:35;;;;;;;15.38;9.73;;;3.40;72.60;;;;;;5031237;28;20033;-69
2022/11/12 00:25:01;;;;;;;17.25;10.05;;;3.40;73.30;;;;;;5031730;28;20032;-68
2022/11/12 00:27:30;;;;;;;15.75;9.52;;;3.40;72.60;;;;;;5034808;28;20057;-68
2022/11/12 00:29:55;;;;;;;16.17;10.68;;;3.40;72.40;;;;;;5025899;28;20032;-68
2022/11/12 00:32:21;;;;;;;17.02;10.82;;;3.40;72.00;;;;;;5033256;28;20116;-69
2022/11/12 00:34:47;;;;;;;20.63;12.10;;;3.40;72.50;;;;;;5033990;28;20350;-68
2022/11/12 00:37:12;;;;;;;15.15;10.25;;;3.40;71.70;;;;;;5031592;28;20021;-68
2022/11/12 00:39:38;;;;;;;17.63;10.77;;;3.30;72.70;;;;;;5030050;28;20033;-69
2022/11/12 00:42:04;;;;;;;16.17;9.98;;;3.20;72.40;;;;;;5017119;28;20030;-68
2022/11/12 00:44:29;;;;;;;17.77;10.07;;;3.00;72.60;;;;;;5030039;28;20038;-68
2022/11/12 00:46:55;;;;;;;19.08;10.13;;;3.00;72.30;;;;;;5027724;28;20036;-68
2022/11/12 00:49:22;;;;;;;14.68;9.82;;;3.00;70.90;;;;;;5026873;28;20048;-68
2022/11/12 00:51:48;;;;;;;13.27;8.50;;;2.90;71.70;;;;;;5020232;28;20037;-68
2022/11/12 00:54:14;;;;;;;15.75;9.40;;;2.90;70.20;;;;;;5030563;28;20018;-69
2022/11/12 00:56:39;;;;;;;12.23;8.68;;;2.90;69.60;;;;;;5026996;28;20032;-68
2022/11/12 00:59:05;;;;;;;13.43;9.13;;;3.00;69.00;;;;;;5015463;28;20054;-68
2022/11/12 01:01:31;;;;;;;15.35;9.25;;;3.00;69.10;;;;;;5021560;28;20071;-67
2022/11/12 01:03:58;;;;;;;11.07;7.38;;;3.00;70.10;;;;;;5033005;28;20077;-68
2022/11/12 01:06:24;;;;;;;15.05;10.05;;;2.90;70.10;;;;;;5034814;28;20049;-68
2022/11/12 01:08:55;;;;;;;11.73;7.82;;;2.80;71.20;;;;;;5032122;28;20028;-68
2022/11/12 01:11:24;;;;;;;10.32;6.85;;;2.80;69.70;;;;;;5023636;28;20029;-68
2022/11/12 01:13:57;;;;;;;13.02;8.30;;;2.70;69.80;;;;;;5032853;28;20037;-68
2022/11/12 01:16:25;;;;;;;10.17;7.00;;;2.80;69.30;;;;;;5035570;28;20045;-68
2022/11/12 01:18:56;;;;;;;9.60;6.65;;;2.70;70.60;;;;;;5021832;28;20031;-68
2022/11/12 01:21:26;;;;;;;10.35;7.40;;;2.70;69.10;;;;;;5028929;28;20026;-67
2022/11/12 01:23:52;;;;;;;13.10;7.43;;;2.60;70.00;;;;;;5039012;28;20030;-67
2022/11/12 01:26:20;;;;;;;12.98;8.52;;;2.60;69.50;;;;;;5033008;28;20040;-69
2022/11/12 01:28:46;;;;;;;10.20;7.22;;;2.60;69.80;;;;;;5033873;28;20108;-69
2022/11/12 01:31:16;;;;;;;10.68;7.53;;;2.60;68.50;;;;;;5035483;28;20029;-69
2022/11/12 01:33:44;;;;;;;21.25;12.10;;;2.70;67.80;;;;;;5023155;28;20060;-68
2022/11/12 01:36:10;;;;;;;17.35;11.20;;;2.70;70.10;;;;;;5030734;28;20108;-69
2022/11/12 01:38:38;;;;;;;15.90;10.50;;;2.50;71.80;;;;;;5027047;28;20033;-68
2022/11/12 01:41:05;;;;;;;13.85;9.80;;;2.30;70.90;;;;;;5022749;28;20026;-68
2022/11/12 01:43:31;;;;;;;12.75;9.80;;;2.30;69.60;;;;;;5035253;28;20022;-68
2022/11/12 01:45:58;;;;;;;12.32;8.80;;;2.30;69.50;;;;;;5021035;28;20088;-68
2022/11/12 01:48:38;;;;;;;12.77;8.98;;;2.30;68.50;;;;;;5025911;28;20022;-68
2022/11/12 01:51:05;;;;;;;14.48;9.68;;;2.40;68.40;;;;;;5034325;28;20025;-68
2022/11/12 01:53:37;;;;;;;14.20;10.02;;;2.40;68.50;;;;;;5032252;28;20295;-67
2022/11/12 01:56:04;;;;;;;15.60;9.40;;;2.50;68.10;;;;;;5032588;28;20299;-69
2022/11/12 01:58:35;;;;;;;12.27;8.13;;;2.50;69.20;;;;;;5006990;28;20032;-67
2022/11/12 02:01:02;;;;;;;15.18;9.13;;;2.50;69.60;;;;;;5017326;28;20028;-68
2022/11/12 02:03:27;;;;;;;8.82;6.35;;;2.30;70.70;;;;;;5026089;28;20423;-69
2022/11/12 02:06:08;;;;;;;10.88;7.60;;;2.40;68.40;;;;;;5028591;28;20071;-68
2022/11/12 02:08:36;;;;;;;10.20;6.95;;;2.40;68.60;;;;;;5026837;28;20026;-67
2022/11/12 02:11:14;;;;;;;12.07;8.00;;;2.50;68.40;;;;;;5034634;28;20087;-69
2022/11/12 02:14:00;;;;;;;9.80;6.53;;;2.50;69.10;;;;;;5031548;28;20049;-69
2022/11/12 02:16:32;;;;;;;13.65;9.30;;;2.60;69.30;;;;;;5024392;28;20028;-68
2022/11/12 02:18:58;;;;;;;15.05;9.93;;;2.50;70.80;;;;;;5013546;28;20034;-69
2022/11/12 02:21:26;;;;;;;11.05;7.47;;;2.40;71.20;;;;;;5020162;28;20024;-68
2022/11/12 02:24:25;;;;;;;11.55;7.78;;;2.30;69.90;;;;;;5025982;28;20029;-68
2022/11/12 02:26:53;;;;;;;14.57;9.90;;;2.40;68.80;;;;;;5028732;28;20079;-68
2022/11/12 02:29:19;;;;;;;14.57;10.20;;;2.30;70.30;;;;;;5024674;28;20318;-68
2022/11/12 02:31:47;;;;;;;19.23;11.00;;;2.20;71.00;;;;;;5030028;28;20445;-68
2022/11/12 02:34:13;;;;;;;14.02;8.65;;;2.20;70.80;;;;;;5018310;28;20033;-69
2022/11/12 02:36:38;;;;;;;15.18;9.15;;;2.00;71.50;;;;;;5033859;28;20076;-69
2022/11/12 02:39:04;;;;;;;11.13;7.57;;;1.90;71.30;;;;;;5026246;28;20064;-68
2022/11/12 02:41:30;;;;;;;11.27;6.57;;;1.90;70.20;;;;;;5017570;28;20411;-69
2022/11/12 02:43:56;;;;;;;9.80;7.03;;;1.90;68.60;;;;;;5028896;28;20036;-68
2022/11/12 02:46:22;;;;;;;10.98;7.18;;;2.10;67.40;;;;;;5028357;28;20643;-69
2022/11/12 02:48:47;;;;;;;11.35;8.00;;;2.20;67.60;;;;;;5029516;28;20030;-69
2022/11/12 02:51:13;;;;;;;9.07;6.30;;;2.20;68.70;;;;;;5012891;28;20036;-69
2022/11/12 02:53:39;;;;;;;13.93;8.02;;;2.10;69.90;;;;;;5047799;28;20037;-68
2022/11/12 02:56:07;;;;;;;14.35;8.27;;;2.10;68.70;;;;;;5024341;28;20009;-69
2022/11/12 02:58:33;;;;;;;11.23;7.35;;;2.20;69.00;;;;;;5034468;28;20322;-68
2022/11/12 03:00:58;;;;;;;11.20;7.55;;;2.20;68.60;;;;;;5016074;28;20104;-68
2022/11/12 03:03:24;;;;;;;8.85;6.38;;;2.20;69.10;;;;;;5013045;28;20053;-68
2022/11/12 03:05:55;;;;;;;10.77;6.85;;;2.20;69.40;;;;;;5030695;28;20062;-68
2022/11/12 03:08:23;;;;;;;12.40;5.90;;;2.20;68.70;;;;;;5025026;28;20067;-68
2022/11/12 03:10:49;;;;;;;11.30;6.88;;;2.20;68.60;;;;;;5025900;28;20025;-69
2022/11/12 03:13:15;;;;;;;9.18;6.25;;;2.20;68.70;;;;;;5013733;28;20119;-68
2022/11/12 03:15:40;;;;;;;9.70;6.93;;;2.30;68.50;;;;;;5000668;28;20028;-68
2022/11/12 03:18:06;;;;;;;8.80;5.78;;;2.30;68.30;;;;;;5012041;28;20033;-69
2022/11/12 03:20:33;;;;;;;10.85;7.53;;;2.40;68.20;;;;;;5010740;28;20022;-68
2022/11/12 03:23:02;;;;;;;9.43;6.15;;;2.40;69.20;;;;;;5009078;28;20080;-68
2022/11/12 03:25:29;;;;;;;10.18;6.10;;;2.50;68.60;;;;;;4991662;28;20056;-68
2022/11/12 03:28:06;;;;;;;8.50;5.45;;;2.50;69.30;;;;;;5009736;28;20115;-68
2022/11/12 03:30:36;;;;;;;11.52;7.03;;;2.50;69.60;;;;;;5011731;28;20092;-69
2022/11/12 03:33:03;;;;;;;10.13;6.38;;;2.30;72.50;;;;;;5013517;28;20037;-68
2022/11/12 03:35:29;;;;;;;11.15;6.30;;;2.10;72.90;;;;;;5022408;28;20100;-68
2022/11/12 03:37:54;;;;;;;8.07;5.35;;;2.00;71.70;;;;;;5021925;28;20121;-68
2022/11/12 03:40:20;;;;;;;7.15;4.90;;;1.90;70.90;;;;;;5025249;28;20036;-68
2022/11/12 03:42:51;;;;;;;9.05;6.07;;;2.10;68.40;;;;;;5039771;28;20083;-69
2022/11/12 03:45:17;;;;;;;9.80;6.82;;;2.10;69.10;;;;;;5022237;28;20040;-68
2022/11/12 03:47:46;;;;;;;11.10;7.80;;;2.20;68.80;;;;;;5029369;28;20041;-68
2022/11/12 03:50:19;;;;;;;10.70;6.95;;;2.20;69.10;;;;;;5039920;28;20111;-69
2022/11/12 03:52:46;;;;;;;11.00;5.97;;;2.20;69.30;;;;;;5002129;28;20465;-68
2022/11/12 03:55:13;;;;;;;11.32;7.65;;;2.20;69.40;;;;;;5031735;28;20032;-69
2022/11/12 03:57:39;;;;;;;12.38;6.18;;;2.10;71.60;;;;;;5032160;28;20026;-69
2022/11/12 04:00:07;;;;;;;9.00;4.80;;;2.00;70.10;;;;;;5024875;28;20034;-68
2022/11/12 04:02:32;;;;;;;6.50;4.28;;;2.00;68.50;;;;;;5026515;28;20109;-69
2022/11/12 04:10:33;;;;;;;7.00;4.25;;;2.00;68.70;;;;;;5015039;28;20036;-68
2022/11/12 04:15:42;;;;;;;9.75;6.07;;;2.20;68.10;;;;;;5031895;28;20041;-67
2022/11/12 04:23:36;;;;;;;11.55;6.97;;;2.20;68.00;;;;;;5029762;28;20048;-68
2022/11/12 04:31:30;;;;;;;11.45;6.85;;;2.40;67.40;;;;;;5022112;28;19916;-69
2022/11/12 04:34:27;;;;;;;11.13;7.22;;;2.60;67.00;;;;;;5017600;28;20030;-68
2022/11/12 04:36:45;;;;;;;12.85;8.25;;;2.60;67.70;;;;;;5028860;28;20025;-68
2022/11/12 04:39:11;;;;;;;10.35;6.30;;;2.50;68.00;;;;;;5033602;28;20047;-69
2022/11/12 04:47:05;;;;;;;8.93;6.05;;;2.50;67.70;;;;;;5030639;28;20172;-69
2022/11/12 04:49:31;;;;;;;13.30;7.82;;;2.50;67.30;;;;;;5031918;28;20113;-69
2022/11/12 04:52:06;;;;;;;10.85;6.43;;;2.60;67.00;;;;;;5026736;28;20044;-68
2022/11/12 04:54:32;;;;;;;12.23;7.88;;;2.60;66.90;;;;;;5024461;28;20867;-69
2022/11/12 04:56:59;;;;;;;9.88;7.07;;;2.70;67.60;;;;;;5009146;28;20076;-69
2022/11/12 04:59:25;;;;;;;12.57;7.45;;;2.60;68.00;;;;;;5033253;28;20029;-68
2022/11/12 05:01:51;;;;;;;10.75;6.65;;;2.60;67.60;;;;;;5032978;28;20079;-68
2022/11/12 05:04:16;;;;;;;10.55;7.25;;;2.60;67.20;;;;;;5032543;28;20422;-69
2022/11/12 05:06:51;;;;;;;14.20;8.05;;;2.70;66.80;;;;;;5033998;28;20022;-69
2022/11/12 05:09:18;;;;;;;9.63;5.40;;;2.70;66.90;;;;;;5032042;28;20033;-68
2022/11/12 05:11:43;;;;;;;11.55;7.28;;;2.80;66.50;;;;;;5041223;28;20033;-68
2022/11/12 05:14:09;;;;;;;10.48;6.25;;;2.80;67.10;;;;;;5026493;28;20334;-69
2022/11/12 05:16:35;;;;;;;6.93;4.65;;;2.80;66.70;;;;;;5028748;28;20373;-68
2022/11/12 05:19:02;;;;;;;8.25;5.18;;;2.90;66.20;;;;;;5033649;28;20029;-68
2022/11/12 05:24:12;;;;;;;12.57;8.25;;;2.90;66.90;;;;;;5028969;28;20048;-69
2022/11/12 05:26:38;;;;;;;8.40;5.75;;;2.90;66.80;;;;;;5035460;28;20037;-69
2022/11/12 05:29:07;;;;;;;12.52;9.07;;;2.80;67.30;;;;;;5031633;28;20116;-69
2022/11/12 05:31:33;;;;;;;17.35;11.68;;;2.70;67.70;;;;;;5026395;28;20022;-69
2022/11/12 05:33:59;;;;;;;16.10;11.32;;;2.60;68.50;;;;;;5027801;28;20322;-69
2022/11/12 05:36:24;;;;;;;10.65;8.35;;;2.50;67.50;;;;;;5023104;28;20025;-69
2022/11/12 05:38:50;;;;;;;12.18;7.97;;;2.60;66.10;;;;;;5019889;28;20109;-68
2022/11/12 05:41:16;;;;;;;14.75;10.70;;;2.70;66.10;;;;;;5031745;28;20036;-69
2022/11/12 05:43:42;;;;;;;11.15;7.30;;;2.70;66.30;;;;;;5027529;28;20072;-68
2022/11/12 05:46:08;;;;;;;13.35;9.00;;;2.80;66.10;;;;;;5034636;28;20080;-68
2022/11/12 05:48:34;;;;;;;13.05;8.38;;;2.70;66.70;;;;;;5026884;28;20357;-68
2022/11/12 05:50:59;;;;;;;8.98;6.13;;;2.70;66.90;;;;;;5009443;28;20088;-69
2022/11/12 05:53:25;;;;;;;13.63;9.95;;;2.70;66.40;;;;;;5020244;28;20030;-69
2022/11/12 05:55:51;;;;;;;11.38;8.30;;;2.60;67.40;;;;;;5027678;28;20025;-68
2022/11/12 05:58:17;;;;;;;11.68;6.95;;;2.40;68.20;;;;;;5031779;28;20032;-69
2022/11/12 06:00:42;;;;;;;7.78;5.03;;;2.30;68.20;;;;;;5020552;28;20021;-70
2022/11/12 06:03:09;;;;;;;6.63;4.28;;;2.40;66.10;;;;;;5026199;28;20052;-68
2022/11/12 06:05:35;;;;;;;8.20;5.45;;;2.60;65.90;;;;;;5031946;28;20152;-69
2022/11/12 06:08:02;;;;;;;9.98;5.50;;;2.70;65.90;;;;;;5022274;28;20547;-69
2022/11/12 06:10:28;;;;;;;9.15;5.40;;;2.80;66.10;;;;;;5023873;28;20302;-68
2022/11/12 06:12:54;;;;;;;8.75;5.72;;;2.80;66.20;;;;;;5030341;28;20032;-68
2022/11/12 06:15:20;;;;;;;8.45;5.40;;;2.80;66.20;;;;;;5017912;28;20022;-68
2022/11/12 06:17:46;;;;;;;10.52;5.45;;;2.90;66.30;;;;;;5018752;28;20045;-68
2022/11/12 06:20:12;;;;;;;7.90;4.68;;;2.90;66.50;;;;;;5022800;28;20140;-68
2022/11/12 06:22:40;;;;;;;8.63;4.60;;;2.90;66.80;;;;;;5023729;28;20025;-69
2022/11/12 06:25:06;;;;;;;7.28;4.65;;;2.90;66.90;;;;;;5033027;28;20068;-68
2022/11/12 06:27:31;;;;;;;7.75;4.90;;;2.90;67.60;;;;;;5026011;28;20065;-69
2022/11/12 06:29:57;;;;;;;6.93;4.38;;;2.90;67.60;;;;;;5035081;28;20036;-69
2022/11/12 06:32:23;;;;;;;6.00;3.40;;;2.80;67.60;;;;;;5025907;28;20029;-69
2022/11/12 06:34:51;;;;;;;7.25;3.13;;;3.00;66.60;;;;;;5030129;28;20029;-68
2022/11/12 06:37:17;;;;;;;6.88;3.72;;;3.00;67.00;;;;;;5028364;28;20441;-68
2022/11/12 06:39:42;;;;;;;12.80;7.57;;;3.10;66.70;;;;;;5014698;28;20080;-69
2022/11/12 06:42:08;;;;;;;5.90;3.40;;;3.10;67.00;;;;;;5010523;28;20512;-68
2022/11/12 06:44:34;;;;;;;8.63;4.25;;;3.10;67.40;;;;;;5010835;28;20029;-68
2022/11/12 06:47:01;;;;;;;18.40;12.23;;;3.10;66.90;;;;;;5023077;28;20037;-68
2022/11/12 06:49:26;;;;;;;18.77;13.05;;;3.20;66.80;;;;;;5032936;28;20030;-68
2022/11/12 06:51:52;;;;;;;18.50;13.90;;;3.20;67.30;;;;;;5032056;28;20330;-69
2022/11/12 06:54:18;;;;;;;12.73;9.45;;;3.20;67.00;;;;;;5024555;28;20034;-68
2022/11/12 06:56:44;;;;;;;15.30;11.05;;;3.30;66.50;;;;;;5029129;28;20049;-69
2022/11/12 06:59:10;;;;;;;8.48;5.70;;;3.30;66.40;;;;;;5026991;28;20026;-67
2022/11/12 07:01:35;;;;;;;10.00;6.95;;;3.30;67.10;;;;;;5012864;28;20029;-68
2022/11/12 07:04:02;;;;;;;12.35;7.55;;;3.30;67.20;;;;;;5024194;28;20303;-68
2022/11/12 07:06:28;;;;;;;13.15;8.45;;;3.40;66.80;;;;;;5027719;28;20032;-69
2022/11/12 07:08:54;;;;;;;19.63;13.77;;;3.50;66.80;;;;;;5021626;28;20354;-69
2022/11/12 07:11:20;;;;;;;21.63;14.85;;;3.60;67.50;;;;;;5030644;28;20124;-68
2022/11/12 07:13:46;;;;;;;26.30;19.13;;;3.40;69.70;;;;;;5013431;28;20037;-68
2022/11/12 07:16:17;;;;;;;39.10;28.10;;;3.30;69.20;;;;;;5028694;28;20029;-68
2022/11/12 07:18:48;;;;;;;30.50;21.75;;;3.30;68.10;;;;;;5034169;28;20025;-69
2022/11/12 07:21:19;;;;;;;34.22;24.55;;;3.30;68.50;;;;;;5020018;28;20079;-69
2022/11/12 07:23:46;;;;;;;22.40;17.05;;;3.30;69.60;;;;;;5022103;28;20110;-69
2022/11/12 07:26:17;;;;;;;26.02;18.33;;;3.20;69.50;;;;;;5025151;28;20390;-69
2022/11/12 07:28:44;;;;;;;19.65;14.63;;;3.20;69.00;;;;;;5020524;28;20124;-69
2022/11/12 07:31:15;;;;;;;24.45;17.35;;;3.20;68.60;;;;;;5005763;28;20400;-68
2022/11/12 07:33:44;;;;;;;22.02;15.70;;;3.30;68.80;;;;;;5011965;28;20033;-68
2022/11/12 07:36:14;;;;;;;21.35;15.57;;;3.30;68.70;;;;;;5011948;28;20083;-69
2022/11/12 07:38:41;;;;;;;26.33;17.50;;;3.40;69.20;;;;;;5022994;28;20022;-69
2022/11/12 07:41:16;;;;;;;26.65;18.73;;;3.50;68.70;;;;;;4992036;28;20105;-69
2022/11/12 07:43:43;;;;;;;27.88;19.88;;;3.60;68.80;;;;;;5010327;28;20040;-70
2022/11/12 07:46:14;;;;;;;21.95;16.40;;;3.70;68.70;;;;;;5009797;28;20026;-68
2022/11/12 07:48:40;;;;;;;21.70;14.20;;;3.90;67.70;;;;;;5009153;28;20091;-68
2022/11/12 07:51:18;;;;;;;18.00;14.57;;;3.90;69.70;;;;;;5004334;28;20326;-68
2022/11/12 07:53:44;;;;;;;16.52;12.65;;;3.90;70.50;;;;;;5008254;28;20034;-68
2022/11/12 07:56:16;;;;;;;10.77;8.63;;;3.90;72.00;;;;;;5014517;28;20029;-68
2022/11/12 07:58:42;;;;;;;17.73;12.90;;;4.00;72.60;;;;;;5001208;28;20030;-68
2022/11/12 08:01:31;;;;;;;17.25;13.18;;;4.10;74.10;;;;;;5026297;28;20026;-68
2022/11/12 08:04:01;;;;;;;17.10;13.18;;;4.20;74.60;;;;;;4992852;28;20030;-68
2022/11/12 08:06:28;;;;;;;17.83;13.57;;;4.40;73.40;;;;;;5011836;28;20059;-68
2022/11/12 08:08:54;;;;;;;17.05;12.48;;;4.60;74.60;;;;;;5012611;28;20292;-68
2022/11/12 08:11:24;;;;;;;15.50;12.45;;;4.60;75.20;;;;;;5002497;28;20037;-68
2022/11/12 08:13:50;;;;;;;15.57;12.75;;;4.70;74.20;;;;;;5011707;28;20026;-69
2022/11/12 08:16:16;;;;;;;17.20;14.50;;;4.60;78.50;;;;;;5013399;28;20117;-70
2022/11/12 08:18:43;;;;;;;18.08;12.30;;;4.50;79.50;;;;;;5014196;28;20105;-70
2022/11/12 08:21:12;;;;;;;15.73;12.45;;;4.50;81.10;;;;;;5010907;28;20026;-69
2022/11/12 08:23:37;;;;;;;16.73;13.88;;;4.40;83.20;;;;;;5006138;28;20026;-69
2022/11/12 08:26:05;;;;;;;16.50;13.73;;;4.50;82.60;;;;;;4996876;28;20093;-68
2022/11/12 08:28:32;;;;;;;14.23;11.05;;;4.80;81.70;;;;;;5028992;28;20073;-69
2022/11/12 08:31:03;;;;;;;15.07;12.13;;;5.20;79.10;;;;;;5017956;28;20052;-69
2022/11/12 08:33:29;;;;;;;18.23;12.32;;;5.80;78.00;;;;;;5029190;28;20026;-69
2022/11/12 08:35:55;;;;;;;17.25;12.02;;;6.40;84.60;;;;;;5027875;28;20040;-69
2022/11/12 08:38:21;;;;;;;14.02;10.30;;;6.70;88.70;;;;;;5031321;28;20035;-69
2022/11/12 08:40:46;;;;;;;18.48;12.02;;;7.30;88.20;;;;;;5027349;28;20029;-69
2022/11/12 08:43:12;;;;;;;19.08;11.30;;;8.00;96.90;;;;;;5038864;28;20033;-69
2022/11/12 08:45:39;;;;;;;12.73;9.75;;;8.40;98.00;;;;;;5031672;28;20030;-69
2022/11/12 08:48:12;;;;;;;11.38;7.53;;;8.90;98.00;;;;;;5034953;28;20029;-69
2022/11/12 08:50:38;;;;;;;9.52;7.40;;;9.70;98.00;;;;;;5034980;28;20163;-70
2022/11/12 08:53:12;;;;;;;11.15;7.25;;;9.90;98.00;;;;;;5035292;28;20575;-69
2022/11/12 08:55:38;;;;;;;11.13;6.80;;;10.10;98.00;;;;;;5035470;28;20495;-68
2022/11/12 08:58:04;;;;;;;12.98;9.07;;;10.90;98.00;;;;;;5033825;28;20060;-69
2022/11/12 09:00:39;;;;;;;16.27;9.52;;;11.30;95.90;;;;;;5032986;28;20111;-69
2022/11/12 09:03:07;;;;;;;9.13;6.63;;;11.30;94.20;;;;;;5027581;28;20412;-68
2022/11/12 09:05:35;;;;;;;13.65;8.15;;;11.20;93.90;;;;;;5037253;28;20098;-69
2022/11/12 09:08:04;;;;;;;10.63;7.40;;;11.20;92.80;;;;;;5027941;28;20033;-69
2022/11/12 09:10:30;;;;;;;10.23;6.97;;;11.80;92.60;;;;;;5028084;28;20216;-69
2022/11/12 09:12:56;;;;;;;11.38;8.48;;;12.40;89.20;;;;;;5033597;28;20433;-69
2022/11/12 09:15:24;;;;;;;16.88;11.75;;;12.80;87.70;;;;;;5035711;28;20543;-69
2022/11/12 09:17:57;;;;;;;14.75;11.20;;;12.70;87.00;;;;;;5035931;28;20034;-69
2022/11/12 09:20:23;;;;;;;14.98;10.55;;;12.40;86.40;;;;;;5029400;28;20033;-68
2022/11/12 09:22:50;;;;;;;13.20;10.05;;;12.40;85.60;;;;;;5034874;28;20532;-69
2022/11/12 09:25:15;;;;;;;13.93;9.95;;;12.50;85.30;;;;;;5031407;28;20337;-68
2022/11/12 09:27:41;;;;;;;13.70;10.23;;;12.60;85.80;;;;;;5031797;28;20037;-68
2022/11/12 09:30:10;;;;;;;8.38;5.93;;;12.90;85.90;;;;;;5034966;28;20056;-68
2022/11/12 09:32:36;;;;;;;11.15;7.20;;;13.20;83.10;;;;;;5035487;28;20457;-69
2022/11/12 09:35:02;;;;;;;10.23;6.53;;;13.40;83.30;;;;;;5037545;28;20035;-69
2022/11/12 09:37:28;;;;;;;13.43;7.80;;;13.60;82.70;;;;;;5040276;28;20017;-68
2022/11/12 09:39:53;;;;;;;16.27;10.10;;;13.80;82.90;;;;;;5033258;28;20333;-69
2022/11/12 09:42:21;;;;;;;11.73;8.18;;;14.70;80.60;;;;;;5035446;28;20041;-70
2022/11/12 09:45:14;;;;;;;9.10;5.80;;;15.60;79.10;;;;;;5035883;28;20038;-68
2022/11/12 09:47:52;;;;;;;14.65;8.80;;;15.50;75.60;;;;;;5034825;28;20350;-68
2022/11/12 09:50:24;;;;;;;9.77;6.60;;;15.10;77.40;;;;;;5033895;28;20025;-68
2022/11/12 09:52:55;;;;;;;12.82;6.57;;;14.90;78.10;;;;;;5034478;28;20026;-68
2022/11/12 09:55:41;;;;;;;7.05;5.07;;;14.60;79.30;;;;;;5033046;28;20033;-68
2022/11/12 09:58:11;;;;;;;20.25;11.85;;;14.40;79.40;;;;;;5033844;28;20031;-68
2022/11/12 10:00:55;;;;;;;16.67;10.90;;;14.40;80.20;;;;;;5033673;28;20143;-68
2022/11/12 10:03:39;;;;;;;12.95;7.65;;;14.40;80.90;;;;;;5029678;28;20029;-70
2022/11/12 10:06:15;;;;;;;9.00;4.97;;;14.20;80.00;;;;;;5034022;28;20029;-69
2022/11/12 10:08:58;;;;;;;10.05;6.45;;;14.00;81.70;;;;;;5016903;28;20428;-69
2022/11/12 10:12:30;;;;;;;14.13;8.18;;;14.20;81.70;;;;;;5032298;28;20491;-69
2022/11/12 10:14:32;;;;;;;7.45;4.00;;;14.40;80.40;;;;;;5032741;28;20068;-68
2022/11/12 10:17:19;;;;;;;9.60;5.60;;;14.40;80.90;;;;;;5033046;28;20375;-69
2022/11/12 10:20:09;;;;;;;7.38;4.75;;;14.30;80.90;;;;;;5036802;28;20505;-68
2022/11/12 10:23:27;;;;;;;8.90;4.68;;;14.40;79.80;;;;;;5025481;28;20030;-70
2022/11/12 10:26:07;;;;;;;8.02;4.72;;;14.00;81.00;;;;;;5029967;28;20520;-68
2022/11/12 10:28:54;;;;;;;10.50;5.07;;;13.70;82.50;;;;;;5014491;28;20054;-68
2022/11/12 10:31:20;;;;;;;6.85;4.13;;;13.50;82.90;;;;;;5009415;28;20366;-69
2022/11/12 10:33:46;;;;;;;9.77;4.57;;;13.10;84.40;;;;;;5015746;28;20037;-68
2022/11/12 10:36:29;;;;;;;8.35;3.92;;;12.90;86.00;;;;;;5014103;28;20034;-68
2022/11/12 10:38:55;;;;;;;7.70;5.05;;;13.10;86.30;;;;;;5014422;28;20076;-69
2022/11/12 10:41:29;;;;;;;8.80;5.28;;;13.10;85.50;;;;;;5006647;28;20022;-68
2022/11/12 10:44:00;;;;;;;9.68;5.20;;;13.00;85.70;;;;;;5013842;28;20033;-69
2022/11/12 10:46:36;;;;;;;8.88;5.03;;;13.30;86.50;;;;;;5011690;28;20110;-68
2022/11/12 10:49:10;;;;;;;10.93;4.85;;;13.30;85.00;;;;;;5000982;28;20029;-69
2022/11/12 10:51:37;;;;;;;9.30;4.57;;;13.30;85.20;;;;;;5000354;28;20030;-68
2022/11/12 10:54:35;;;;;;;9.65;4.65;;;13.30;85.30;;;;;;5013797;28;20117;-68
2022/11/12 10:57:20;;;;;;;6.40;3.88;;;13.20;85.10;;;;;;5001160;28;20478;-67
2022/11/12 10:59:45;;;;;;;;;;;13.10;85.60;;;;;;5013674;28;20053;-67
2022/11/12 11:02:16;;;;;;;7.53;4.88;;;13.40;85.50;;;;;;5016604;28;19905;-68
2022/11/12 11:04:42;;;;;;;8.18;4.63;;;13.30;84.50;;;;;;5015538;28;20026;-68
2022/11/12 11:07:21;;;;;;;9.65;4.25;;;13.30;85.00;;;;;;5017455;28;20030;-68
2022/11/12 11:09:59;;;;;;;6.93;4.25;;;13.50;84.60;;;;;;5002846;28;20053;-69
2022/11/12 11:12:37;;;;;;;7.82;4.70;;;13.40;84.80;;;;;;4979594;28;20026;-70
2022/11/12 11:15:06;;;;;;;12.05;4.80;;;13.60;85.40;;;;;;4997052;28;20107;-69
2022/11/12 11:17:33;;;;;;;11.48;4.50;;;13.50;84.00;;;;;;4996903;28;20070;-70
2022/11/12 11:20:00;;;;;;;9.27;4.93;;;13.20;85.80;;;;;;4996483;28;20027;-69
2022/11/12 11:22:34;;;;;;;6.80;4.45;;;13.30;86.40;;;;;;5013722;28;20034;-68
2022/11/12 11:25:21;;;;;;;11.70;5.63;;;13.50;85.50;;;;;;5016352;28;20026;-68
2022/11/12 11:28:28;;;;;;;10.45;5.75;;;13.80;84.90;;;;;;5009970;28;20339;-69
2022/11/12 11:31:23;;;;;;;13.05;5.85;;;14.20;84.10;;;;;;5018548;28;20049;-68
2022/11/12 11:33:54;;;;;;;8.45;5.45;;;14.50;82.90;;;;;;5016176;28;20030;-69
2022/11/12 11:36:59;;;;;;;11.82;5.10;;;14.20;83.50;;;;;;5016504;28;20102;-68
2022/11/12 11:39:48;;;;;;;10.35;5.53;;;14.00;84.50;;;;;;5016324;28;20022;-68
2022/11/12 11:42:24;;;;;;;12.52;5.80;;;14.00;84.80;;;;;;5017779;28;20030;-68
2022/11/12 11:45:14;;;;;;;10.05;5.80;;;14.10;86.10;;;;;;5016143;28;20422;-68
2022/11/12 11:48:17;;;;;;;9.35;5.55;;;14.10;86.60;;;;;;5040731;28;20064;-69
2022/11/12 11:50:51;;;;;;;9.27;5.25;;;13.70;87.90;;;;;;5015825;28;20028;-69
2022/11/12 11:53:26;;;;;;;9.75;5.20;;;13.60;87.30;;;;;;5014653;28;20277;-69
2022/11/12 11:55:58;;;;;;;10.90;6.15;;;13.40;88.00;;;;;;5016106;28;20022;-68
2022/11/12 11:58:30;;;;;;;9.10;5.70;;;13.10;89.00;;;;;;5031799;28;20021;-72
2022/11/12 12:01:14;;;;;;;9.07;5.60;;;12.90;90.10;;;;;;5040473;28;20362;-69
2022/11/12 12:04:16;;;;;;;7.80;4.82;;;12.80;90.40;;;;;;5015839;28;20026;-69
2022/11/12 12:07:11;;;;;;;8.98;5.82;;;12.40;91.20;;;;;;5019096;28;20025;-68
2022/11/12 12:10:02;;;;;;;8.70;5.70;;;12.40;91.80;;;;;;5048583;28;20044;-68
2022/11/12 12:12:49;;;;;;;11.55;5.88;;;12.10;92.20;;;;;;5039454;28;20333;-68
2022/11/12 12:15:54;;;;;;;10.77;5.40;;;12.20;93.10;;;;;;5035098;28;20089;-69
2022/11/12 12:18:40;;;;;;;8.38;5.32;;;12.30;92.40;;;;;;5022060;28;20394;-68
2022/11/12 12:21:18;;;;;;;9.63;5.88;;;12.20;92.80;;;;;;5020016;28;20030;-68
2022/11/12 12:23:49;;;;;;;8.77;5.60;;;11.90;93.30;;;;;;5018120;28;20111;-68
2022/11/12 12:26:26;;;;;;;8.68;5.80;;;11.90;94.00;;;;;;5033906;28;20033;-68
2022/11/12 12:29:03;;;;;;;9.55;6.00;;;11.90;94.20;;;;;;5054535;28;20095;-68
2022/11/12 12:31:36;;;;;;;11.98;5.95;;;12.00;94.10;;;;;;5019506;28;20030;-69
2022/11/12 12:34:18;;;;;;;11.35;6.07;;;12.30;93.20;;;;;;5019256;28;20053;-69
2022/11/12 12:36:48;;;;;;;10.45;6.70;;;12.50;92.30;;;;;;5055030;28;20478;-69
2022/11/12 12:39:17;;;;;;;13.57;7.40;;;12.80;91.90;;;;;;5038042;28;20018;-68
2022/11/12 12:42:24;;;;;;;16.20;7.63;;;13.00;91.40;;;;;;5019300;28;20018;-68
2022/11/12 12:44:58;;;;;;;9.60;6.10;;;13.00;91.30;;;;;;5005750;28;20498;-68
2022/11/12 12:47:25;;;;;;;;;;;13.00;91.20;;;;;;5019692;28;20038;-68
2022/11/12 12:49:52;;;;;;;11.43;5.90;;;13.00;91.40;;;;;;5019429;28;19910;-69
2022/11/12 12:52:17;;;;;;;8.70;5.28;;;13.10;91.70;;;;;;5017765;28;20029;-68
2022/11/12 12:54:52;;;;;;;8.45;5.72;;;13.00;91.50;;;;;;5018477;28;20072;-68
2022/11/12 12:57:38;;;;;;;9.73;5.57;;;12.90;91.60;;;;;;5019010;28;20026;-68
2022/11/12 13:00:32;;;;;;;40.85;20.92;;;12.60;92.10;;;;;;5018943;28;20362;-69
2022/11/12 13:02:58;;;;;;;14.53;10.13;;;12.40;92.90;;;;;;5019027;28;20030;-69
2022/11/12 13:05:28;;;;;;;10.63;6.18;;;12.30;93.80;;;;;;5034355;28;20124;-69
2022/11/12 13:07:57;;;;;;;12.45;7.03;;;12.30;93.80;;;;;;5037162;28;20032;-69
2022/11/12 13:10:41;;;;;;;10.82;7.13;;;12.20;93.70;;;;;;5037097;28;20322;-68
2022/11/12 13:13:24;;;;;;;10.50;6.90;;;12.20;93.80;;;;;;5038559;28;20490;-69
2022/11/12 13:15:53;;;;;;;9.75;5.82;;;12.20;94.10;;;;;;5035237;28;20453;-69
2022/11/12 13:18:38;;;;;;;9.98;6.35;;;12.20;94.20;;;;;;5019764;28;20022;-69
2022/11/12 13:21:11;;;;;;;9.88;6.45;;;12.20;94.20;;;;;;5032537;28;20018;-69
2022/11/12 13:26:58;;;;;;;8.37;6.17;;;12.30;94.00;;;;;;5036291;28;20051;-68
2022/11/12 13:29:26;;;;;;;8.30;5.97;;;12.00;94.80;;;;;;5033053;28;20053;-69
2022/11/12 13:32:42;;;;;;;9.52;6.10;;;11.90;95.20;;;;;;5036749;28;20052;-69
2022/11/12 13:35:10;;;;;;;9.82;6.70;;;11.80;95.80;;;;;;4992298;28;20081;-69